createdAt,value
2018-06-14T00:01:37.664Z,14.60
2018-06-14T00:04:05.347Z,14.60
2018-06-14T00:06:33.076Z,14.60
2018-06-14T00:09:00.757Z,14.60
2018-06-14T00:13:56.014Z,14.60
2018-06-14T00:16:23.582Z,14.60
2018-06-14T00:18:51.173Z,14.60
2018-06-14T00:21:18.786Z,14.30
2018-06-14T00:23:46.387Z,14.40
2018-06-14T00:26:13.943Z,14.20
2018-06-14T00:28:41.757Z,14.00
2018-06-14T00:31:09.321Z,14.00
2018-06-14T00:33:36.918Z,14.10
2018-06-14T00:36:04.645Z,14.20
2018-06-14T00:38:32.368Z,14.20
2018-06-14T00:40:59.925Z,14.10
2018-06-14T00:43:27.573Z,14.00
2018-06-14T00:45:55.162Z,14.00
2018-06-14T00:50:50.277Z,13.80
2018-06-14T00:53:17.929Z,13.90
2018-06-14T00:55:45.549Z,13.70
2018-06-14T00:58:13.245Z,13.70
2018-06-14T01:00:40.908Z,13.70
2018-06-14T01:05:36.238Z,13.70
2018-06-14T01:08:03.993Z,13.60
2018-06-14T01:10:32.644Z,13.60
2018-06-14T01:13:00.254Z,13.80
2018-06-14T01:17:55.400Z,13.90
2018-06-14T01:20:23.094Z,13.90
2018-06-14T01:22:50.882Z,13.90
2018-06-14T01:25:18.485Z,13.80
2018-06-14T01:27:46.157Z,13.70
2018-06-14T01:30:14.173Z,13.70
2018-06-14T01:32:41.763Z,13.70
2018-06-14T01:40:10.213Z,13.50
2018-06-14T01:42:37.852Z,13.40
2018-06-14T01:45:05.713Z,13.40
2018-06-14T01:47:33.543Z,13.20
2018-06-14T01:50:01.190Z,13.30
2018-06-14T01:52:28.807Z,13.30
2018-06-14T01:54:56.413Z,13.30
2018-06-14T01:57:24.029Z,13.20
2018-06-14T01:59:51.782Z,13.20
2018-06-14T02:04:47.118Z,13.20
2018-06-14T02:07:14.746Z,13.10
2018-06-14T02:09:42.361Z,13.10
2018-06-14T02:12:09.917Z,13.20
2018-06-14T02:14:37.646Z,13.30
2018-06-14T02:19:32.826Z,13.40
2018-06-14T02:22:00.488Z,13.30
2018-06-14T02:24:28.100Z,13.20
2018-06-14T02:26:55.826Z,13.30
2018-06-14T02:29:23.471Z,13.30
2018-06-14T02:31:51.049Z,13.20
2018-06-14T02:36:46.329Z,13.20
2018-06-14T02:39:13.956Z,13.30
2018-06-14T02:41:41.493Z,13.30
2018-06-14T02:46:36.711Z,13.50
2018-06-14T02:51:32.013Z,13.40
2018-06-14T02:53:59.637Z,13.30
2018-06-14T02:56:27.242Z,13.20
2018-06-14T03:01:22.545Z,13.20
2018-06-14T03:03:50.110Z,13.20
2018-06-14T03:06:17.708Z,13.20
2018-06-14T03:08:45.262Z,13.10
2018-06-14T03:11:12.854Z,13.20
2018-06-14T03:13:40.503Z,13.30
2018-06-14T03:16:08.125Z,13.20
2018-06-14T03:28:27.029Z,13.40
2018-06-14T03:30:54.736Z,13.20
2018-06-14T03:33:22.339Z,13.20
2018-06-14T03:35:49.932Z,13.10
2018-06-14T03:38:17.673Z,13.30
2018-06-14T03:40:45.609Z,13.40
2018-06-14T03:43:13.208Z,13.30
2018-06-14T03:45:40.802Z,13.40
2018-06-14T03:48:08.398Z,13.40
2018-06-14T03:50:36.189Z,13.50
2018-06-14T03:53:03.775Z,13.50
2018-06-14T03:55:31.486Z,13.40
2018-06-14T03:57:59.049Z,13.40
2018-06-14T04:00:28.201Z,13.40
2018-06-14T04:05:23.386Z,13.60
2018-06-14T04:07:51.010Z,13.60
2018-06-14T04:10:18.714Z,13.70
2018-06-14T04:12:46.312Z,13.60
2018-06-14T04:15:13.885Z,13.60
2018-06-14T04:17:41.510Z,13.60
2018-06-14T04:20:09.067Z,13.70
2018-06-14T04:25:04.246Z,13.70
2018-06-14T04:30:00.501Z,13.80
2018-06-14T04:32:28.094Z,13.80
2018-06-14T04:37:23.293Z,13.90
2018-06-14T04:39:50.850Z,13.90
2018-06-14T04:42:18.466Z,14.00
2018-06-14T04:44:46.037Z,14.20
2018-06-14T04:47:13.720Z,14.20
2018-06-14T04:49:41.311Z,14.30
2018-06-14T04:54:36.614Z,14.40
2018-06-14T04:59:31.935Z,14.50
2018-06-14T05:01:59.538Z,14.50
2018-06-14T05:04:27.169Z,14.60
2018-06-14T05:06:54.776Z,14.50
2018-06-14T05:09:22.370Z,14.50
2018-06-14T05:11:49.948Z,14.80
2018-06-14T05:16:45.225Z,14.80
2018-06-14T05:19:13.021Z,14.70
2018-06-14T05:21:40.621Z,14.80
2018-06-14T05:24:08.232Z,14.80
2018-06-14T05:26:35.818Z,14.70
2018-06-14T05:29:04.341Z,14.70
2018-06-14T05:31:31.917Z,14.70
2018-06-14T05:33:59.525Z,14.90
2018-06-14T05:38:54.825Z,14.80
2018-06-14T05:41:22.389Z,14.90
2018-06-14T05:46:17.577Z,15.00
2018-06-14T05:48:45.245Z,14.90
2018-06-14T05:51:12.801Z,15.10
2018-06-14T05:53:40.483Z,15.00
2018-06-14T05:56:08.048Z,14.90
2018-06-14T05:58:35.665Z,15.00
2018-06-14T06:01:03.237Z,15.00
2018-06-14T06:03:30.845Z,15.00
2018-06-14T06:08:26.069Z,15.10
2018-06-14T06:10:53.681Z,15.00
2018-06-14T06:13:21.330Z,15.00
2018-06-14T06:15:48.922Z,14.90
2018-06-14T06:18:16.565Z,15.00
2018-06-14T06:20:44.244Z,15.10
2018-06-14T06:23:11.848Z,15.20
2018-06-14T06:25:39.535Z,15.40
2018-06-14T06:28:07.150Z,15.50
2018-06-14T06:33:02.346Z,15.50
2018-06-14T06:35:29.910Z,15.50
2018-06-14T06:40:25.064Z,15.70
2018-06-14T06:45:20.212Z,15.60
2018-06-14T06:47:47.838Z,15.70
2018-06-14T06:52:42.945Z,15.60
2018-06-14T06:55:10.542Z,15.50
2018-06-14T06:57:38.241Z,15.60
2018-06-14T07:00:06.523Z,15.70
2018-06-14T07:02:34.493Z,15.70
2018-06-14T07:05:02.147Z,15.50
2018-06-14T07:07:29.725Z,15.70
2018-06-14T07:12:24.864Z,15.90
2018-06-14T07:14:52.506Z,15.90
2018-06-14T07:17:20.097Z,16.00
2018-06-14T07:19:47.685Z,16.00
2018-06-14T07:22:15.243Z,16.10
2018-06-14T07:24:42.824Z,16.30
2018-06-14T07:27:10.391Z,16.30
2018-06-14T07:29:38.038Z,16.40
2018-06-14T07:32:05.926Z,16.60
2018-06-14T07:37:01.232Z,16.60
2018-06-14T07:39:28.829Z,16.50
2018-06-14T07:44:23.951Z,16.40
2018-06-14T07:46:51.672Z,16.60
2018-06-14T07:49:19.313Z,16.70
2018-06-14T07:51:46.924Z,16.80
2018-06-14T07:54:14.660Z,16.80
2018-06-14T07:56:42.225Z,16.80
2018-06-14T07:59:09.814Z,16.90
2018-06-14T08:01:37.537Z,16.80
2018-06-14T08:04:05.181Z,16.90
2018-06-14T08:09:00.477Z,16.80
2018-06-14T08:11:28.083Z,16.90
2018-06-14T08:13:55.681Z,16.90
2018-06-14T08:16:23.336Z,16.80
2018-06-14T08:21:18.517Z,17.00
2018-06-14T08:23:46.110Z,17.10
2018-06-14T08:26:13.740Z,17.20
2018-06-14T08:28:41.294Z,17.20
2018-06-14T08:31:08.901Z,17.40
2018-06-14T08:33:36.517Z,17.50
2018-06-14T08:36:04.165Z,17.60
2018-06-14T08:38:31.737Z,17.30
2018-06-14T08:40:59.337Z,17.30
2018-06-14T08:43:26.958Z,17.30
2018-06-14T08:45:54.542Z,17.40
2018-06-14T08:48:22.101Z,17.50
2018-06-14T08:50:49.699Z,17.50
2018-06-14T08:53:17.259Z,17.70
2018-06-14T08:55:44.875Z,17.90
2018-06-14T09:00:40.017Z,18.30
2018-06-14T09:03:07.582Z,18.40
2018-06-14T09:05:35.191Z,18.10
2018-06-14T09:08:02.765Z,17.80
2018-06-14T09:12:58.075Z,18.30
2018-06-14T09:15:25.729Z,18.40
2018-06-14T09:17:53.271Z,18.70
2018-06-14T09:20:20.876Z,18.60
2018-06-14T09:25:16.048Z,18.60
2018-06-14T09:27:43.600Z,18.50
2018-06-14T09:30:11.170Z,18.30
2018-06-14T09:32:38.758Z,18.10
2018-06-14T09:35:06.558Z,17.90
2018-06-14T09:37:34.480Z,18.00
2018-06-14T09:40:02.125Z,17.90
2018-06-14T09:42:29.706Z,17.90
2018-06-14T09:44:57.306Z,18.00
2018-06-14T09:47:24.901Z,18.10
2018-06-14T09:49:52.508Z,18.20
2018-06-14T09:54:47.617Z,18.70
2018-06-14T09:57:15.197Z,18.80
2018-06-14T09:59:42.777Z,19.10
2018-06-14T10:02:10.456Z,19.30
2018-06-14T10:04:38.108Z,19.40
2018-06-14T10:07:05.720Z,19.50
2018-06-14T10:09:33.331Z,19.80
2018-06-14T10:12:00.921Z,19.60
2018-06-14T10:14:28.582Z,19.20
2018-06-14T10:16:56.203Z,19.40
2018-06-14T10:19:23.770Z,19.40
2018-06-14T10:21:51.423Z,19.50
2018-06-14T10:24:19.015Z,19.40
2018-06-14T10:26:46.588Z,19.50
2018-06-14T10:29:14.207Z,19.70
2018-06-14T10:31:41.786Z,19.70
2018-06-14T10:34:09.340Z,19.80
2018-06-14T10:36:36.978Z,19.70
2018-06-14T10:39:06.362Z,19.40
2018-06-14T10:41:33.977Z,19.40
2018-06-14T10:44:01.558Z,19.10
2018-06-14T10:46:29.161Z,19.00
2018-06-14T10:48:56.753Z,19.10
2018-06-14T10:51:24.388Z,19.30
2018-06-14T10:53:51.989Z,19.40
2018-06-14T10:58:47.403Z,19.70
2018-06-14T11:01:15.019Z,20.10
2018-06-14T11:03:42.603Z,20.20
2018-06-14T11:06:10.203Z,19.90
2018-06-14T11:08:37.778Z,20.30
2018-06-14T11:11:05.437Z,20.40
2018-06-14T11:13:33.065Z,20.50
2018-06-14T11:16:00.644Z,20.60
2018-06-14T11:18:28.284Z,20.50
2018-06-14T11:20:55.924Z,20.50
2018-06-14T11:23:23.498Z,20.40
2018-06-14T11:25:51.134Z,20.30
2018-06-14T11:28:18.748Z,20.40
2018-06-14T11:33:13.949Z,20.20
2018-06-14T11:35:41.606Z,20.00
2018-06-14T11:38:09.206Z,19.70
2018-06-14T11:40:36.808Z,19.90
2018-06-14T11:43:04.436Z,20.00
2018-06-14T11:45:32.046Z,20.00
2018-06-14T11:47:59.651Z,20.10
2018-06-14T11:52:54.825Z,20.10
2018-06-14T11:55:22.361Z,20.10
2018-06-14T11:57:49.972Z,20.10
2018-06-14T12:00:17.525Z,20.30
2018-06-14T12:05:12.721Z,20.70
2018-06-14T12:07:40.302Z,21.00
2018-06-14T12:10:07.873Z,21.20
2018-06-14T12:12:35.495Z,21.20
2018-06-14T12:15:03.183Z,21.20
2018-06-14T12:17:30.734Z,21.10
2018-06-14T12:19:58.295Z,21.00
2018-06-14T12:22:25.890Z,21.10
2018-06-14T12:24:53.464Z,21.20
2018-06-14T12:27:21.044Z,21.10
2018-06-14T12:29:48.603Z,21.20
2018-06-14T12:32:16.219Z,21.30
2018-06-14T12:37:11.417Z,21.10
2018-06-14T12:39:38.986Z,21.10
2018-06-14T12:42:06.577Z,21.20
2018-06-14T12:44:34.161Z,21.30
2018-06-14T12:47:01.761Z,21.60
2018-06-14T12:49:29.702Z,22.10
2018-06-14T12:51:57.298Z,22.10
2018-06-14T12:56:52.691Z,21.90
2018-06-14T12:59:20.304Z,22.30
2018-06-14T13:01:47.878Z,22.60
2018-06-14T13:04:15.482Z,22.40
2018-06-14T13:06:43.031Z,22.20
2018-06-14T13:09:12.074Z,21.60
2018-06-14T13:11:39.655Z,21.70
2018-06-14T13:14:08.093Z,21.90
2018-06-14T13:16:35.710Z,22.50
2018-06-14T13:19:03.317Z,22.80
2018-06-14T13:21:30.937Z,22.80
2018-06-14T13:23:58.557Z,22.90
2018-06-14T13:26:26.122Z,22.80
2018-06-14T13:28:53.746Z,22.70
2018-06-14T13:31:21.478Z,22.60
2018-06-14T13:33:49.114Z,22.50
2018-06-14T13:36:16.861Z,22.50
2018-06-14T13:38:44.440Z,22.60
2018-06-14T13:41:12.015Z,22.60
2018-06-14T13:43:39.634Z,22.40
2018-06-14T13:46:07.241Z,22.60
2018-06-14T13:48:34.839Z,23.00
2018-06-14T13:51:02.408Z,23.20
2018-06-14T13:53:30.122Z,22.90
2018-06-14T13:55:57.671Z,22.40
2018-06-14T13:58:25.294Z,22.10
2018-06-14T14:00:52.903Z,22.00
2018-06-14T14:03:20.588Z,22.10
2018-06-14T14:05:48.134Z,22.20
2018-06-14T14:08:15.719Z,22.40
2018-06-14T14:13:10.878Z,22.50
2018-06-14T14:15:38.475Z,22.50
2018-06-14T14:18:06.098Z,22.70
2018-06-14T14:20:33.782Z,22.80
2018-06-14T14:23:01.357Z,22.80
2018-06-14T14:25:28.914Z,22.90
2018-06-14T14:32:51.685Z,22.50
2018-06-14T14:35:19.282Z,22.30
2018-06-14T14:37:46.871Z,22.30
2018-06-14T14:40:14.535Z,22.40
2018-06-14T14:42:42.078Z,22.30
2018-06-14T14:45:09.698Z,22.40
2018-06-14T14:47:38.042Z,22.60
2018-06-14T14:50:07.867Z,23.30
2018-06-14T14:52:35.491Z,24.10
2018-06-14T14:55:03.164Z,24.40
2018-06-14T14:57:30.970Z,24.40
2018-06-14T14:59:58.791Z,24.10
2018-06-14T15:02:26.425Z,24.00
2018-06-14T15:04:54.076Z,24.30
2018-06-14T15:07:21.641Z,24.30
2018-06-14T15:09:49.230Z,24.20
2018-06-14T15:12:16.930Z,25.00
2018-06-14T15:17:12.138Z,26.20
2018-06-14T15:19:39.808Z,26.10
2018-06-14T15:22:07.382Z,25.90
2018-06-14T15:24:35.001Z,26.30
2018-06-14T15:27:02.959Z,26.70
2018-06-14T15:29:30.615Z,26.70
2018-06-14T15:31:58.213Z,26.40
2018-06-14T15:34:25.798Z,26.50
2018-06-14T15:36:53.371Z,26.90
2018-06-14T15:39:20.991Z,28.10
2018-06-14T15:41:48.576Z,28.00
2018-06-14T15:46:43.847Z,26.30
2018-06-14T15:49:11.533Z,25.40
2018-06-14T15:51:39.113Z,24.80
2018-06-14T15:54:06.761Z,25.40
2018-06-14T15:59:08.472Z,27.40
2018-06-14T16:01:36.025Z,27.60
2018-06-14T16:04:04.285Z,28.60
2018-06-14T16:06:32.015Z,28.80
2018-06-14T16:08:59.631Z,28.30
2018-06-14T16:11:27.549Z,27.40
2018-06-14T16:13:55.208Z,27.30
2018-06-14T16:16:23.233Z,26.70
2018-06-14T16:18:50.854Z,26.50
2018-06-14T16:21:18.464Z,27.80
2018-06-14T16:23:46.012Z,28.80
2018-06-14T16:26:13.723Z,30.00
2018-06-14T16:28:41.379Z,30.40
2018-06-14T16:31:08.969Z,30.80
2018-06-14T16:33:36.551Z,30.70
2018-06-14T16:36:04.671Z,28.70
2018-06-14T16:38:32.331Z,28.60
2018-06-14T16:40:59.945Z,28.00
2018-06-14T16:43:27.541Z,27.50
2018-06-14T16:45:55.190Z,26.40
2018-06-14T16:48:22.981Z,25.70
2018-06-14T16:50:50.577Z,25.80
2018-06-14T16:53:18.129Z,25.90
2018-06-14T16:55:45.753Z,25.90
2018-06-14T16:58:13.342Z,25.80
2018-06-14T17:00:40.937Z,25.20
2018-06-14T17:03:08.511Z,25.00
2018-06-14T17:05:36.115Z,24.60
2018-06-14T17:08:03.753Z,24.00
2018-06-14T17:12:58.953Z,23.90
2018-06-14T17:15:26.554Z,23.80
2018-06-14T17:20:21.789Z,23.30
2018-06-14T17:25:16.976Z,23.40
2018-06-14T17:27:44.558Z,23.60
2018-06-14T17:32:39.740Z,23.60
2018-06-14T17:35:07.354Z,23.60
2018-06-14T17:37:34.973Z,23.60
2018-06-14T17:40:02.602Z,23.40
2018-06-14T17:42:30.210Z,23.40
2018-06-14T17:47:25.716Z,23.30
2018-06-14T17:49:53.278Z,23.20
2018-06-14T17:52:20.863Z,23.00
2018-06-14T17:54:48.481Z,23.00
2018-06-14T17:57:16.112Z,23.10
2018-06-14T17:59:43.717Z,23.20
2018-06-14T18:02:11.425Z,22.80
2018-06-14T18:04:39.317Z,22.70
2018-06-14T18:07:06.990Z,22.90
2018-06-14T18:09:34.610Z,22.80
2018-06-14T18:12:02.497Z,22.90
2018-06-14T18:14:30.093Z,22.90
2018-06-14T18:16:57.705Z,22.90
2018-06-14T18:19:25.315Z,22.90
2018-06-14T18:21:53.018Z,22.70
2018-06-14T18:24:20.589Z,22.80
2018-06-14T18:26:48.198Z,23.00
2018-06-14T18:29:15.745Z,22.80
2018-06-14T18:31:43.354Z,22.80
2018-06-14T18:34:10.931Z,22.70
2018-06-14T18:36:38.813Z,22.90
2018-06-14T18:39:08.754Z,22.80
2018-06-14T18:41:36.357Z,22.70
2018-06-14T18:46:31.536Z,22.50
2018-06-14T18:48:59.910Z,22.40
2018-06-14T18:51:27.647Z,22.20
2018-06-14T18:53:55.361Z,22.10
2018-06-14T18:56:23.196Z,22.20
2018-06-14T18:58:50.985Z,22.20
2018-06-14T19:01:18.646Z,22.20
2018-06-14T19:03:46.318Z,22.10
2018-06-14T19:06:14.409Z,22.00
2018-06-14T19:08:42.044Z,21.90
2018-06-14T19:11:09.938Z,21.90
2018-06-14T19:13:37.594Z,21.00
2018-06-14T19:16:05.222Z,20.40
2018-06-14T19:18:32.905Z,20.30
2018-06-14T19:21:00.640Z,19.70
2018-06-14T19:23:29.076Z,19.30
2018-06-14T19:25:56.776Z,18.80
2018-06-14T19:28:24.421Z,18.70
2018-06-14T19:30:52.099Z,18.50
2018-06-14T19:33:19.790Z,18.10
2018-06-14T19:35:47.395Z,18.10
2018-06-14T19:38:15.057Z,18.00
2018-06-14T19:40:42.680Z,17.70
2018-06-14T19:43:10.404Z,17.90
2018-06-14T19:48:06.076Z,18.20
2018-06-14T19:53:01.316Z,18.10
2018-06-14T19:55:28.905Z,18.20
2018-06-14T19:57:56.646Z,18.50
2018-06-14T20:00:24.343Z,18.70
2018-06-14T20:02:52.373Z,18.40
2018-06-14T20:05:20.009Z,18.60
2018-06-14T20:07:48.005Z,18.30
2018-06-14T20:10:15.730Z,18.10
2018-06-14T20:15:10.934Z,18.30
2018-06-14T20:17:38.542Z,18.40
2018-06-14T20:20:07.002Z,18.50
2018-06-14T20:22:34.656Z,18.40
2018-06-14T20:27:30.177Z,18.40
2018-06-14T20:29:57.824Z,18.50
2018-06-14T20:32:25.881Z,18.70
2018-06-14T20:37:21.388Z,18.50
2018-06-14T20:39:48.976Z,18.30
2018-06-14T20:42:17.041Z,18.10
2018-06-14T20:44:44.704Z,18.20
2018-06-14T20:47:12.931Z,18.40
2018-06-14T20:49:40.594Z,18.40
2018-06-14T20:52:08.203Z,18.50
2018-06-14T20:54:35.803Z,18.30
2018-06-14T20:57:03.521Z,18.50
2018-06-14T20:59:31.120Z,18.30
2018-06-14T21:01:58.729Z,18.50
2018-06-14T21:04:26.403Z,18.50
2018-06-14T21:06:53.985Z,18.40
2018-06-14T21:09:21.624Z,18.40
2018-06-14T21:11:49.226Z,18.20
2018-06-14T21:16:44.509Z,18.20
2018-06-14T21:19:12.112Z,18.10
2018-06-14T21:21:39.655Z,18.30
2018-06-14T21:24:07.389Z,18.30
2018-06-14T21:26:34.933Z,18.20
2018-06-14T21:29:02.548Z,18.30
2018-06-14T21:31:30.132Z,18.20
2018-06-14T21:33:57.736Z,18.10
2018-06-14T21:36:25.385Z,18.00
2018-06-14T21:38:52.951Z,18.20
2018-06-14T21:46:16.030Z,18.10
2018-06-14T21:48:43.610Z,18.30
2018-06-14T21:51:11.266Z,18.10
2018-06-14T21:53:38.837Z,18.10
2018-06-14T21:56:06.490Z,18.20
2018-06-14T22:01:01.691Z,18.30
2018-06-14T22:03:35.009Z,18.30
2018-06-14T22:06:02.756Z,18.20
2018-06-14T22:10:58.293Z,18.30
2018-06-14T22:13:25.937Z,18.30
2018-06-14T22:15:53.572Z,18.20
2018-06-14T22:18:21.238Z,18.10
2018-06-14T22:20:48.921Z,18.10
2018-06-14T22:23:16.786Z,18.10
2018-06-14T22:25:44.586Z,18.00
2018-06-14T22:28:12.253Z,17.80
2018-06-14T22:30:39.870Z,17.90
2018-06-14T22:33:19.105Z,17.90
2018-06-14T22:35:46.771Z,18.00
2018-06-14T22:38:14.406Z,18.00
2018-06-14T22:40:42.043Z,18.00
2018-06-14T22:43:09.657Z,17.90
2018-06-14T22:45:37.305Z,18.00
2018-06-14T22:48:04.882Z,18.00
2018-06-14T22:53:08.415Z,18.00
2018-06-14T22:58:03.638Z,18.00
2018-06-14T23:05:32.208Z,18.00
2018-06-14T23:07:59.830Z,18.10
2018-06-14T23:10:42.957Z,18.10
2018-06-14T23:13:13.720Z,17.90
2018-06-14T23:15:41.389Z,17.90
2018-06-14T23:18:09.029Z,17.90
2018-06-14T23:20:36.857Z,17.80
2018-06-14T23:25:33.048Z,17.90
2018-06-14T23:28:00.710Z,17.80
2018-06-14T23:30:28.286Z,17.80
2018-06-14T23:32:55.915Z,17.90
2018-06-14T23:35:23.552Z,17.90
2018-06-14T23:37:51.172Z,17.80
2018-06-14T23:40:18.829Z,17.70
2018-06-14T23:42:46.406Z,17.80
2018-06-14T23:45:14.051Z,17.70
2018-06-14T23:47:41.685Z,17.60
2018-06-14T23:50:09.324Z,17.40
2018-06-14T23:52:36.957Z,17.50
2018-06-14T23:55:04.657Z,17.70
2018-06-14T23:57:32.325Z,17.70
2018-06-14T23:59:59.936Z,17.50
